sensor_id;sensor_type;location;lat;lon;timestamp;P1;durP1;ratioP1;P2;durP2;ratioP2
34767;SDS011;21755;43.608;1.236;2023-03-15T00:01:12;33.45;;;4.38;;
34767;SDS011;21755;43.608;1.236;2023-03-15T00:03:41;20.00;;;4.32;;
34767;SDS011;21755;43.608;1.236;2023-03-15T00:06:07;28.15;;;4.78;;
34767;SDS011;21755;43.608;1.236;2023-03-15T00:08:34;26.30;;;4.03;;
34767;SDS011;21755;43.608;1.236;2023-03-15T00:11:00;30.85;;;5.22;;
34767;SDS011;21755;43.608;1.236;2023-03-15T00:13:26;28.90;;;4.15;;
34767;SDS011;21755;43.608;1.236;2023-03-15T00:15:54;47.20;;;5.93;;
34767;SDS011;21755;43.608;1.236;2023-03-15T00:18:22;27.48;;;3.85;;
34767;SDS011;21755;43.608;1.236;2023-03-15T00:20:48;36.03;;;4.70;;
34767;SDS011;21755;43.608;1.236;2023-03-15T00:23:14;21.73;;;3.72;;
34767;SDS011;21755;43.608;1.236;2023-03-15T00:25:42;25.25;;;4.03;;
34767;SDS011;21755;43.608;1.236;2023-03-15T00:28:10;24.13;;;3.70;;
34767;SDS011;21755;43.608;1.236;2023-03-15T00:30:36;31.15;;;4.53;;
34767;SDS011;21755;43.608;1.236;2023-03-15T00:33:02;34.15;;;4.43;;
34767;SDS011;21755;43.608;1.236;2023-03-15T00:35:31;24.48;;;3.65;;
34767;SDS011;21755;43.608;1.236;2023-03-15T00:37:58;30.27;;;3.83;;
34767;SDS011;21755;43.608;1.236;2023-03-15T00:40:24;40.00;;;5.07;;
34767;SDS011;21755;43.608;1.236;2023-03-15T00:42:50;34.60;;;4.38;;
34767;SDS011;21755;43.608;1.236;2023-03-15T00:45:17;33.15;;;4.10;;
34767;SDS011;21755;43.608;1.236;2023-03-15T00:47:44;41.50;;;4.72;;
34767;SDS011;21755;43.608;1.236;2023-03-15T00:50:12;22.35;;;3.63;;
34767;SDS011;21755;43.608;1.236;2023-03-15T00:52:38;35.63;;;3.88;;
34767;SDS011;21755;43.608;1.236;2023-03-15T00:55:08;28.55;;;4.53;;
34767;SDS011;21755;43.608;1.236;2023-03-15T00:57:37;23.35;;;3.92;;
34767;SDS011;21755;43.608;1.236;2023-03-15T01:00:08;22.70;;;3.03;;
34767;SDS011;21755;43.608;1.236;2023-03-15T01:02:36;29.35;;;4.70;;
34767;SDS011;21755;43.608;1.236;2023-03-15T01:05:03;32.90;;;4.43;;
34767;SDS011;21755;43.608;1.236;2023-03-15T01:07:30;30.48;;;3.38;;
34767;SDS011;21755;43.608;1.236;2023-03-15T01:09:59;32.15;;;4.35;;
34767;SDS011;21755;43.608;1.236;2023-03-15T01:12:27;31.90;;;3.72;;
34767;SDS011;21755;43.608;1.236;2023-03-15T01:14:56;20.98;;;2.75;;
34767;SDS011;21755;43.608;1.236;2023-03-15T01:17:23;29.90;;;4.63;;
34767;SDS011;21755;43.608;1.236;2023-03-15T01:19:48;28.10;;;3.45;;
34767;SDS011;21755;43.608;1.236;2023-03-15T01:22:16;30.55;;;3.75;;
34767;SDS011;21755;43.608;1.236;2023-03-15T01:24:42;18.55;;;3.15;;
34767;SDS011;21755;43.608;1.236;2023-03-15T01:27:08;31.05;;;3.33;;
34767;SDS011;21755;43.608;1.236;2023-03-15T01:29:34;31.13;;;4.57;;
34767;SDS011;21755;43.608;1.236;2023-03-15T01:32:00;23.63;;;3.05;;
34767;SDS011;21755;43.608;1.236;2023-03-15T01:34:26;20.10;;;2.55;;
34767;SDS011;21755;43.608;1.236;2023-03-15T01:36:52;31.50;;;4.13;;
34767;SDS011;21755;43.608;1.236;2023-03-15T01:39:19;20.55;;;3.00;;
34767;SDS011;21755;43.608;1.236;2023-03-15T01:41:45;24.85;;;3.25;;
34767;SDS011;21755;43.608;1.236;2023-03-15T01:44:12;26.63;;;3.58;;
34767;SDS011;21755;43.608;1.236;2023-03-15T01:46:39;21.10;;;3.38;;
34767;SDS011;21755;43.608;1.236;2023-03-15T01:49:10;20.52;;;3.00;;
34767;SDS011;21755;43.608;1.236;2023-03-15T01:51:52;29.33;;;3.60;;
34767;SDS011;21755;43.608;1.236;2023-03-15T01:57:14;22.67;;;4.72;;
34767;SDS011;21755;43.608;1.236;2023-03-15T02:00:10;21.63;;;3.22;;
34767;SDS011;21755;43.608;1.236;2023-03-15T02:02:42;22.70;;;3.00;;
34767;SDS011;21755;43.608;1.236;2023-03-15T02:05:27;21.27;;;3.30;;
34767;SDS011;21755;43.608;1.236;2023-03-15T02:08:10;23.02;;;3.22;;
34767;SDS011;21755;43.608;1.236;2023-03-15T02:10:47;20.42;;;2.80;;
34767;SDS011;21755;43.608;1.236;2023-03-15T02:13:17;27.75;;;2.95;;
34767;SDS011;21755;43.608;1.236;2023-03-15T02:15:46;21.67;;;3.30;;
34767;SDS011;21755;43.608;1.236;2023-03-15T02:18:13;15.63;;;3.35;;
34767;SDS011;21755;43.608;1.236;2023-03-15T02:23:28;17.33;;;2.97;;
34767;SDS011;21755;43.608;1.236;2023-03-15T02:25:59;22.98;;;3.33;;
34767;SDS011;21755;43.608;1.236;2023-03-15T02:28:36;25.27;;;3.75;;
34767;SDS011;21755;43.608;1.236;2023-03-15T02:31:02;24.20;;;2.88;;
34767;SDS011;21755;43.608;1.236;2023-03-15T02:33:33;19.80;;;2.97;;
34767;SDS011;21755;43.608;1.236;2023-03-15T02:36:16;16.33;;;2.60;;
34767;SDS011;21755;43.608;1.236;2023-03-15T02:38:43;22.83;;;2.67;;
34767;SDS011;21755;43.608;1.236;2023-03-15T02:41:09;20.17;;;2.83;;
34767;SDS011;21755;43.608;1.236;2023-03-15T02:43:37;22.52;;;3.10;;
34767;SDS011;21755;43.608;1.236;2023-03-15T02:46:04;22.92;;;3.95;;
34767;SDS011;21755;43.608;1.236;2023-03-15T02:48:31;25.48;;;3.42;;
34767;SDS011;21755;43.608;1.236;2023-03-15T02:50:59;21.42;;;2.70;;
34767;SDS011;21755;43.608;1.236;2023-03-15T02:53:27;20.00;;;3.00;;
34767;SDS011;21755;43.608;1.236;2023-03-15T02:55:54;19.48;;;2.70;;
34767;SDS011;21755;43.608;1.236;2023-03-15T02:58:21;25.98;;;3.05;;
34767;SDS011;21755;43.608;1.236;2023-03-15T03:00:47;13.65;;;3.05;;
34767;SDS011;21755;43.608;1.236;2023-03-15T03:03:13;17.48;;;2.80;;
34767;SDS011;21755;43.608;1.236;2023-03-15T03:05:38;23.75;;;3.03;;
34767;SDS011;21755;43.608;1.236;2023-03-15T03:08:04;27.63;;;3.45;;
34767;SDS011;21755;43.608;1.236;2023-03-15T03:10:30;16.88;;;3.17;;
34767;SDS011;21755;43.608;1.236;2023-03-15T03:12:57;19.55;;;3.22;;
34767;SDS011;21755;43.608;1.236;2023-03-15T03:15:23;20.10;;;3.30;;
34767;SDS011;21755;43.608;1.236;2023-03-15T03:17:49;21.33;;;2.95;;
34767;SDS011;21755;43.608;1.236;2023-03-15T03:20:15;18.20;;;3.25;;
34767;SDS011;21755;43.608;1.236;2023-03-15T03:22:41;21.15;;;3.00;;
34767;SDS011;21755;43.608;1.236;2023-03-15T03:25:09;26.60;;;4.15;;
34767;SDS011;21755;43.608;1.236;2023-03-15T03:27:36;23.98;;;3.83;;
34767;SDS011;21755;43.608;1.236;2023-03-15T03:30:03;21.10;;;2.85;;
34767;SDS011;21755;43.608;1.236;2023-03-15T03:32:31;22.67;;;2.97;;
34767;SDS011;21755;43.608;1.236;2023-03-15T03:34:57;19.90;;;3.60;;
34767;SDS011;21755;43.608;1.236;2023-03-15T03:37:24;24.67;;;3.03;;
34767;SDS011;21755;43.608;1.236;2023-03-15T03:39:50;24.25;;;3.15;;
34767;SDS011;21755;43.608;1.236;2023-03-15T03:42:16;21.83;;;2.75;;
34767;SDS011;21755;43.608;1.236;2023-03-15T03:44:42;18.02;;;2.90;;
34767;SDS011;21755;43.608;1.236;2023-03-15T03:47:08;21.33;;;2.53;;
34767;SDS011;21755;43.608;1.236;2023-03-15T03:49:34;19.50;;;3.17;;
34767;SDS011;21755;43.608;1.236;2023-03-15T03:51:59;18.85;;;2.95;;
34767;SDS011;21755;43.608;1.236;2023-03-15T03:54:26;20.20;;;2.90;;
34767;SDS011;21755;43.608;1.236;2023-03-15T03:56:52;19.73;;;2.95;;
34767;SDS011;21755;43.608;1.236;2023-03-15T03:59:18;19.35;;;3.05;;
34767;SDS011;21755;43.608;1.236;2023-03-15T04:01:44;22.77;;;3.25;;
34767;SDS011;21755;43.608;1.236;2023-03-15T04:04:10;25.27;;;2.92;;
34767;SDS011;21755;43.608;1.236;2023-03-15T04:06:38;19.15;;;2.95;;
34767;SDS011;21755;43.608;1.236;2023-03-15T04:09:12;21.23;;;2.55;;
34767;SDS011;21755;43.608;1.236;2023-03-15T04:11:40;20.27;;;2.60;;
34767;SDS011;21755;43.608;1.236;2023-03-15T04:14:10;19.55;;;3.38;;
34767;SDS011;21755;43.608;1.236;2023-03-15T04:16:37;11.00;;;1.83;;
34767;SDS011;21755;43.608;1.236;2023-03-15T04:19:03;23.65;;;4.22;;
34767;SDS011;21755;43.608;1.236;2023-03-15T04:21:29;26.20;;;2.78;;
34767;SDS011;21755;43.608;1.236;2023-03-15T04:23:56;24.75;;;3.00;;
34767;SDS011;21755;43.608;1.236;2023-03-15T04:26:23;17.55;;;2.85;;
34767;SDS011;21755;43.608;1.236;2023-03-15T04:28:54;22.92;;;2.72;;
34767;SDS011;21755;43.608;1.236;2023-03-15T04:31:21;16.08;;;3.58;;
34767;SDS011;21755;43.608;1.236;2023-03-15T04:33:54;17.65;;;3.15;;
34767;SDS011;21755;43.608;1.236;2023-03-15T04:36:21;13.20;;;2.45;;
34767;SDS011;21755;43.608;1.236;2023-03-15T04:38:47;15.50;;;2.80;;
34767;SDS011;21755;43.608;1.236;2023-03-15T04:41:14;16.25;;;2.40;;
34767;SDS011;21755;43.608;1.236;2023-03-15T04:43:41;15.77;;;2.60;;
34767;SDS011;21755;43.608;1.236;2023-03-15T04:46:07;21.05;;;3.10;;
34767;SDS011;21755;43.608;1.236;2023-03-15T04:48:33;18.15;;;2.60;;
34767;SDS011;21755;43.608;1.236;2023-03-15T04:51:00;14.02;;;2.60;;
34767;SDS011;21755;43.608;1.236;2023-03-15T04:53:26;15.38;;;2.55;;
34767;SDS011;21755;43.608;1.236;2023-03-15T04:55:52;13.68;;;2.45;;
34767;SDS011;21755;43.608;1.236;2023-03-15T04:58:18;24.15;;;2.83;;
34767;SDS011;21755;43.608;1.236;2023-03-15T05:00:44;23.48;;;2.58;;
34767;SDS011;21755;43.608;1.236;2023-03-15T05:03:10;12.15;;;2.70;;
34767;SDS011;21755;43.608;1.236;2023-03-15T05:05:36;17.08;;;2.38;;
34767;SDS011;21755;43.608;1.236;2023-03-15T05:08:02;21.38;;;2.80;;
34767;SDS011;21755;43.608;1.236;2023-03-15T05:10:28;20.10;;;2.00;;
34767;SDS011;21755;43.608;1.236;2023-03-15T05:12:54;23.63;;;3.10;;
34767;SDS011;21755;43.608;1.236;2023-03-15T05:15:20;19.52;;;2.17;;
34767;SDS011;21755;43.608;1.236;2023-03-15T05:17:46;22.45;;;2.63;;
34767;SDS011;21755;43.608;1.236;2023-03-15T05:20:13;26.95;;;2.30;;
34767;SDS011;21755;43.608;1.236;2023-03-15T05:22:40;10.88;;;2.35;;
34767;SDS011;21755;43.608;1.236;2023-03-15T05:25:07;19.55;;;2.70;;
34767;SDS011;21755;43.608;1.236;2023-03-15T05:27:35;14.20;;;2.83;;
34767;SDS011;21755;43.608;1.236;2023-03-15T05:30:02;19.70;;;2.33;;
34767;SDS011;21755;43.608;1.236;2023-03-15T05:32:29;16.70;;;2.53;;
34767;SDS011;21755;43.608;1.236;2023-03-15T05:35:01;14.52;;;2.42;;
34767;SDS011;21755;43.608;1.236;2023-03-15T05:37:28;15.10;;;2.08;;
34767;SDS011;21755;43.608;1.236;2023-03-15T05:39:56;21.55;;;1.95;;
34767;SDS011;21755;43.608;1.236;2023-03-15T05:42:22;12.85;;;1.90;;
34767;SDS011;21755;43.608;1.236;2023-03-15T05:44:51;14.73;;;2.10;;
34767;SDS011;21755;43.608;1.236;2023-03-15T05:47:17;16.25;;;2.15;;
34767;SDS011;21755;43.608;1.236;2023-03-15T05:49:44;20.02;;;2.13;;
34767;SDS011;21755;43.608;1.236;2023-03-15T05:52:11;19.77;;;2.72;;
34767;SDS011;21755;43.608;1.236;2023-03-15T05:54:37;15.82;;;1.95;;
34767;SDS011;21755;43.608;1.236;2023-03-15T05:57:02;14.13;;;2.05;;
34767;SDS011;21755;43.608;1.236;2023-03-15T05:59:29;12.95;;;1.80;;
34767;SDS011;21755;43.608;1.236;2023-03-15T06:01:55;13.73;;;1.90;;
34767;SDS011;21755;43.608;1.236;2023-03-15T06:04:21;13.18;;;2.08;;
34767;SDS011;21755;43.608;1.236;2023-03-15T06:06:47;24.35;;;3.05;;
34767;SDS011;21755;43.608;1.236;2023-03-15T06:09:13;19.70;;;2.60;;
34767;SDS011;21755;43.608;1.236;2023-03-15T06:11:39;11.02;;;2.00;;
34767;SDS011;21755;43.608;1.236;2023-03-15T06:14:05;16.50;;;1.98;;
34767;SDS011;21755;43.608;1.236;2023-03-15T06:16:31;12.32;;;2.20;;
34767;SDS011;21755;43.608;1.236;2023-03-15T06:18:57;15.20;;;2.67;;
34767;SDS011;21755;43.608;1.236;2023-03-15T06:21:23;18.13;;;2.78;;
34767;SDS011;21755;43.608;1.236;2023-03-15T06:23:48;15.98;;;2.38;;
34767;SDS011;21755;43.608;1.236;2023-03-15T06:26:14;18.40;;;3.58;;
34767;SDS011;21755;43.608;1.236;2023-03-15T06:28:43;8.98;;;2.40;;
34767;SDS011;21755;43.608;1.236;2023-03-15T06:31:10;19.92;;;3.63;;
34767;SDS011;21755;43.608;1.236;2023-03-15T06:33:37;21.25;;;3.88;;
34767;SDS011;21755;43.608;1.236;2023-03-15T06:36:04;17.67;;;3.88;;
34767;SDS011;21755;43.608;1.236;2023-03-15T06:38:32;13.98;;;2.97;;
34767;SDS011;21755;43.608;1.236;2023-03-15T06:40:58;19.50;;;2.40;;
34767;SDS011;21755;43.608;1.236;2023-03-15T06:43:29;10.15;;;2.17;;
34767;SDS011;21755;43.608;1.236;2023-03-15T06:45:56;17.40;;;2.22;;
34767;SDS011;21755;43.608;1.236;2023-03-15T06:48:24;12.63;;;2.72;;
34767;SDS011;21755;43.608;1.236;2023-03-15T06:50:50;14.55;;;2.65;;
34767;SDS011;21755;43.608;1.236;2023-03-15T06:53:16;26.55;;;3.03;;
34767;SDS011;21755;43.608;1.236;2023-03-15T06:55:43;17.08;;;3.22;;
34767;SDS011;21755;43.608;1.236;2023-03-15T06:58:09;12.57;;;2.55;;
34767;SDS011;21755;43.608;1.236;2023-03-15T07:00:36;20.00;;;2.72;;
34767;SDS011;21755;43.608;1.236;2023-03-15T07:03:02;10.63;;;2.40;;
34767;SDS011;21755;43.608;1.236;2023-03-15T07:05:28;17.40;;;3.25;;
34767;SDS011;21755;43.608;1.236;2023-03-15T07:07:54;17.77;;;3.30;;
34767;SDS011;21755;43.608;1.236;2023-03-15T07:10:20;15.80;;;2.50;;
34767;SDS011;21755;43.608;1.236;2023-03-15T07:12:46;17.42;;;2.67;;
34767;SDS011;21755;43.608;1.236;2023-03-15T07:15:11;6.75;;;2.15;;
34767;SDS011;21755;43.608;1.236;2023-03-15T07:17:37;15.00;;;2.92;;
34767;SDS011;21755;43.608;1.236;2023-03-15T07:20:04;16.50;;;2.42;;
34767;SDS011;21755;43.608;1.236;2023-03-15T07:22:31;14.30;;;2.60;;
34767;SDS011;21755;43.608;1.236;2023-03-15T07:24:57;13.98;;;3.53;;
34767;SDS011;21755;43.608;1.236;2023-03-15T07:27:23;11.75;;;2.85;;
34767;SDS011;21755;43.608;1.236;2023-03-15T07:29:49;15.30;;;2.90;;
34767;SDS011;21755;43.608;1.236;2023-03-15T07:32:15;11.38;;;1.98;;
34767;SDS011;21755;43.608;1.236;2023-03-15T07:34:41;15.63;;;2.38;;
34767;SDS011;21755;43.608;1.236;2023-03-15T07:37:07;20.25;;;2.72;;
34767;SDS011;21755;43.608;1.236;2023-03-15T07:39:34;22.33;;;2.92;;
34767;SDS011;21755;43.608;1.236;2023-03-15T07:42:00;18.60;;;2.72;;
34767;SDS011;21755;43.608;1.236;2023-03-15T07:44:26;17.42;;;2.33;;
34767;SDS011;21755;43.608;1.236;2023-03-15T07:46:52;13.38;;;2.08;;
34767;SDS011;21755;43.608;1.236;2023-03-15T07:49:19;9.77;;;2.00;;
34767;SDS011;21755;43.608;1.236;2023-03-15T07:51:45;18.35;;;2.33;;
34767;SDS011;21755;43.608;1.236;2023-03-15T07:54:11;16.27;;;2.40;;
34767;SDS011;21755;43.608;1.236;2023-03-15T07:56:37;19.25;;;2.78;;
34767;SDS011;21755;43.608;1.236;2023-03-15T07:59:03;18.55;;;2.97;;
34767;SDS011;21755;43.608;1.236;2023-03-15T08:01:29;11.93;;;2.35;;
34767;SDS011;21755;43.608;1.236;2023-03-15T08:03:55;18.38;;;2.35;;
34767;SDS011;21755;43.608;1.236;2023-03-15T08:06:21;13.38;;;2.47;;
34767;SDS011;21755;43.608;1.236;2023-03-15T08:08:46;17.77;;;2.75;;
34767;SDS011;21755;43.608;1.236;2023-03-15T08:11:12;12.43;;;2.17;;
34767;SDS011;21755;43.608;1.236;2023-03-15T08:13:38;22.40;;;2.45;;
34767;SDS011;21755;43.608;1.236;2023-03-15T08:16:05;10.57;;;2.33;;
34767;SDS011;21755;43.608;1.236;2023-03-15T08:18:31;17.30;;;2.65;;
34767;SDS011;21755;43.608;1.236;2023-03-15T08:20:57;14.63;;;2.42;;
34767;SDS011;21755;43.608;1.236;2023-03-15T08:23:23;9.35;;;1.98;;
34767;SDS011;21755;43.608;1.236;2023-03-15T08:25:49;23.65;;;3.33;;
34767;SDS011;21755;43.608;1.236;2023-03-15T08:28:15;16.63;;;2.03;;
34767;SDS011;21755;43.608;1.236;2023-03-15T08:30:41;12.30;;;2.85;;
34767;SDS011;21755;43.608;1.236;2023-03-15T08:33:07;19.15;;;3.00;;
34767;SDS011;21755;43.608;1.236;2023-03-15T08:35:33;15.80;;;2.65;;
34767;SDS011;21755;43.608;1.236;2023-03-15T08:38:00;15.70;;;2.83;;
34767;SDS011;21755;43.608;1.236;2023-03-15T08:40:27;16.67;;;2.88;;
34767;SDS011;21755;43.608;1.236;2023-03-15T08:42:54;12.20;;;2.25;;
34767;SDS011;21755;43.608;1.236;2023-03-15T08:45:21;12.05;;;2.67;;
34767;SDS011;21755;43.608;1.236;2023-03-15T08:47:48;13.63;;;2.25;;
34767;SDS011;21755;43.608;1.236;2023-03-15T08:50:24;15.07;;;2.05;;
34767;SDS011;21755;43.608;1.236;2023-03-15T08:52:51;15.82;;;2.25;;
34767;SDS011;21755;43.608;1.236;2023-03-15T08:55:18;15.35;;;2.13;;
34767;SDS011;21755;43.608;1.236;2023-03-15T08:57:44;11.05;;;2.28;;
34767;SDS011;21755;43.608;1.236;2023-03-15T09:00:10;14.05;;;2.22;;
34767;SDS011;21755;43.608;1.236;2023-03-15T09:02:50;12.18;;;1.80;;
34767;SDS011;21755;43.608;1.236;2023-03-15T09:05:19;16.25;;;2.00;;
34767;SDS011;21755;43.608;1.236;2023-03-15T09:07:46;13.57;;;3.08;;
34767;SDS011;21755;43.608;1.236;2023-03-15T09:10:14;18.92;;;2.08;;
34767;SDS011;21755;43.608;1.236;2023-03-15T09:12:45;11.68;;;1.55;;
34767;SDS011;21755;43.608;1.236;2023-03-15T09:15:13;7.97;;;1.65;;
34767;SDS011;21755;43.608;1.236;2023-03-15T09:17:39;10.88;;;1.50;;
34767;SDS011;21755;43.608;1.236;2023-03-15T09:20:06;13.52;;;1.55;;
34767;SDS011;21755;43.608;1.236;2023-03-15T09:22:36;12.77;;;1.52;;
34767;SDS011;21755;43.608;1.236;2023-03-15T09:25:02;5.97;;;1.17;;
34767;SDS011;21755;43.608;1.236;2023-03-15T09:27:31;8.90;;;1.40;;
34767;SDS011;21755;43.608;1.236;2023-03-15T09:29:57;6.53;;;1.30;;
34767;SDS011;21755;43.608;1.236;2023-03-15T09:32:23;10.57;;;1.35;;
34767;SDS011;21755;43.608;1.236;2023-03-15T09:34:49;4.85;;;1.10;;
34767;SDS011;21755;43.608;1.236;2023-03-15T09:37:15;6.80;;;1.35;;
34767;SDS011;21755;43.608;1.236;2023-03-15T09:39:41;7.70;;;1.10;;
34767;SDS011;21755;43.608;1.236;2023-03-15T09:47:45;6.03;;;1.27;;
34767;SDS011;21755;43.608;1.236;2023-03-15T09:50:34;7.22;;;1.15;;
34767;SDS011;21755;43.608;1.236;2023-03-15T09:56:01;5.60;;;1.35;;
34767;SDS011;21755;43.608;1.236;2023-03-15T09:58:28;8.70;;;1.00;;
34767;SDS011;21755;43.608;1.236;2023-03-15T10:01:01;8.55;;;1.73;;
34767;SDS011;21755;43.608;1.236;2023-03-15T10:03:48;4.60;;;0.80;;
34767;SDS011;21755;43.608;1.236;2023-03-15T10:06:16;6.45;;;0.98;;
34767;SDS011;21755;43.608;1.236;2023-03-15T10:08:45;3.17;;;0.85;;
34767;SDS011;21755;43.608;1.236;2023-03-15T10:11:19;8.98;;;0.88;;
34767;SDS011;21755;43.608;1.236;2023-03-15T10:19:13;7.85;;;1.00;;
34767;SDS011;21755;43.608;1.236;2023-03-15T10:21:56;6.82;;;1.00;;
34767;SDS011;21755;43.608;1.236;2023-03-15T10:24:47;7.05;;;1.30;;
34767;SDS011;21755;43.608;1.236;2023-03-15T10:27:42;7.85;;;1.55;;
34767;SDS011;21755;43.608;1.236;2023-03-15T10:30:22;9.00;;;1.25;;
34767;SDS011;21755;43.608;1.236;2023-03-15T10:32:55;9.63;;;1.25;;
34767;SDS011;21755;43.608;1.236;2023-03-15T10:35:42;12.68;;;1.85;;
34767;SDS011;21755;43.608;1.236;2023-03-15T10:38:15;7.32;;;1.23;;
34767;SDS011;21755;43.608;1.236;2023-03-15T10:40:44;7.63;;;1.38;;
34767;SDS011;21755;43.608;1.236;2023-03-15T10:43:21;7.97;;;1.40;;
34767;SDS011;21755;43.608;1.236;2023-03-15T10:48:37;7.68;;;1.20;;
34767;SDS011;21755;43.608;1.236;2023-03-15T10:54:02;5.97;;;1.10;;
34767;SDS011;21755;43.608;1.236;2023-03-15T10:56:34;4.30;;;1.17;;
34767;SDS011;21755;43.608;1.236;2023-03-15T10:59:13;9.75;;;1.40;;
34767;SDS011;21755;43.608;1.236;2023-03-15T11:01:50;4.05;;;0.90;;
34767;SDS011;21755;43.608;1.236;2023-03-15T11:09:38;8.85;;;1.20;;
34767;SDS011;21755;43.608;1.236;2023-03-15T11:12:07;5.10;;;0.70;;
34767;SDS011;21755;43.608;1.236;2023-03-15T11:14:55;3.55;;;0.80;;
34767;SDS011;21755;43.608;1.236;2023-03-15T11:17:28;6.15;;;0.82;;
34767;SDS011;21755;43.608;1.236;2023-03-15T11:19:58;5.68;;;0.98;;
34767;SDS011;21755;43.608;1.236;2023-03-15T11:22:36;8.85;;;1.27;;
34767;SDS011;21755;43.608;1.236;2023-03-15T11:25:03;7.60;;;1.80;;
34767;SDS011;21755;43.608;1.236;2023-03-15T11:27:35;5.25;;;1.10;;
34767;SDS011;21755;43.608;1.236;2023-03-15T11:30:02;5.50;;;0.93;;
34767;SDS011;21755;43.608;1.236;2023-03-15T11:32:29;11.77;;;1.27;;
34767;SDS011;21755;43.608;1.236;2023-03-15T11:35:01;5.93;;;1.02;;
34767;SDS011;21755;43.608;1.236;2023-03-15T11:37:44;7.07;;;1.50;;
34767;SDS011;21755;43.608;1.236;2023-03-15T11:40:29;4.38;;;0.60;;
34767;SDS011;21755;43.608;1.236;2023-03-15T11:43:00;8.82;;;1.00;;
34767;SDS011;21755;43.608;1.236;2023-03-15T11:51:35;6.45;;;0.93;;
34767;SDS011;21755;43.608;1.236;2023-03-15T11:59:15;10.30;;;1.85;;
34767;SDS011;21755;43.608;1.236;2023-03-15T12:01:52;8.10;;;1.40;;
34767;SDS011;21755;43.608;1.236;2023-03-15T12:04:46;6.47;;;1.13;;
34767;SDS011;21755;43.608;1.236;2023-03-15T12:09:51;8.75;;;1.00;;
34767;SDS011;21755;43.608;1.236;2023-03-15T12:15:04;6.90;;;1.20;;
34767;SDS011;21755;43.608;1.236;2023-03-15T12:20:40;2.08;;;0.55;;
34767;SDS011;21755;43.608;1.236;2023-03-15T12:25:55;4.95;;;1.10;;
34767;SDS011;21755;43.608;1.236;2023-03-15T12:28:34;2.30;;;0.70;;
34767;SDS011;21755;43.608;1.236;2023-03-15T12:31:10;5.18;;;0.95;;
34767;SDS011;21755;43.608;1.236;2023-03-15T12:33:53;6.40;;;1.10;;
34767;SDS011;21755;43.608;1.236;2023-03-15T12:41:45;10.52;;;1.48;;
34767;SDS011;21755;43.608;1.236;2023-03-15T12:44:22;9.88;;;1.75;;
34767;SDS011;21755;43.608;1.236;2023-03-15T12:47:02;4.55;;;0.82;;
34767;SDS011;21755;43.608;1.236;2023-03-15T12:54:46;4.63;;;0.88;;
34767;SDS011;21755;43.608;1.236;2023-03-15T12:57:26;3.95;;;0.82;;
34767;SDS011;21755;43.608;1.236;2023-03-15T13:02:30;3.38;;;0.70;;
34767;SDS011;21755;43.608;1.236;2023-03-15T13:05:06;4.63;;;0.73;;
34767;SDS011;21755;43.608;1.236;2023-03-15T13:19:30;5.32;;;1.23;;
34767;SDS011;21755;43.608;1.236;2023-03-15T13:25:14;4.68;;;1.00;;
34767;SDS011;21755;43.608;1.236;2023-03-15T13:27:50;4.40;;;0.43;;
34767;SDS011;21755;43.608;1.236;2023-03-15T13:30:29;1.70;;;0.55;;
34767;SDS011;21755;43.608;1.236;2023-03-15T13:35:41;2.72;;;0.70;;
34767;SDS011;21755;43.608;1.236;2023-03-15T13:41:03;2.53;;;0.73;;
34767;SDS011;21755;43.608;1.236;2023-03-15T13:43:35;0.88;;;0.50;;
34767;SDS011;21755;43.608;1.236;2023-03-15T13:46:03;6.78;;;0.93;;
34767;SDS011;21755;43.608;1.236;2023-03-15T13:48:30;2.03;;;0.60;;
34767;SDS011;21755;43.608;1.236;2023-03-15T13:51:01;2.20;;;0.55;;
34767;SDS011;21755;43.608;1.236;2023-03-15T13:53:32;3.10;;;0.77;;
34767;SDS011;21755;43.608;1.236;2023-03-15T13:56:00;1.52;;;0.70;;
34767;SDS011;21755;43.608;1.236;2023-03-15T13:58:26;4.72;;;0.98;;
34767;SDS011;21755;43.608;1.236;2023-03-15T14:00:59;3.85;;;0.80;;
34767;SDS011;21755;43.608;1.236;2023-03-15T14:03:31;4.30;;;0.68;;
34767;SDS011;21755;43.608;1.236;2023-03-15T14:05:58;3.28;;;0.70;;
34767;SDS011;21755;43.608;1.236;2023-03-15T14:08:31;1.65;;;0.60;;
34767;SDS011;21755;43.608;1.236;2023-03-15T14:13:55;4.80;;;1.10;;
34767;SDS011;21755;43.608;1.236;2023-03-15T14:16:33;1.75;;;0.73;;
34767;SDS011;21755;43.608;1.236;2023-03-15T14:19:23;3.30;;;0.65;;
34767;SDS011;21755;43.608;1.236;2023-03-15T14:21:57;2.72;;;0.68;;
34767;SDS011;21755;43.608;1.236;2023-03-15T14:24:45;1.75;;;0.40;;
34767;SDS011;21755;43.608;1.236;2023-03-15T14:27:17;2.05;;;0.68;;
34767;SDS011;21755;43.608;1.236;2023-03-15T14:29:51;1.60;;;0.60;;
34767;SDS011;21755;43.608;1.236;2023-03-15T14:32:34;8.23;;;0.73;;
34767;SDS011;21755;43.608;1.236;2023-03-15T14:35:03;3.00;;;1.10;;
34767;SDS011;21755;43.608;1.236;2023-03-15T14:37:41;2.63;;;0.70;;
34767;SDS011;21755;43.608;1.236;2023-03-15T14:40:21;2.00;;;0.70;;
34767;SDS011;21755;43.608;1.236;2023-03-15T14:42:52;0.80;;;0.50;;
34767;SDS011;21755;43.608;1.236;2023-03-15T14:45:19;3.75;;;0.77;;
34767;SDS011;21755;43.608;1.236;2023-03-15T14:47:53;2.85;;;0.50;;
34767;SDS011;21755;43.608;1.236;2023-03-15T14:50:23;2.03;;;0.45;;
34767;SDS011;21755;43.608;1.236;2023-03-15T14:52:55;2.92;;;0.57;;
34767;SDS011;21755;43.608;1.236;2023-03-15T14:55:23;5.10;;;0.98;;
34767;SDS011;21755;43.608;1.236;2023-03-15T14:57:57;6.90;;;0.70;;
34767;SDS011;21755;43.608;1.236;2023-03-15T15:00:23;2.78;;;0.65;;
34767;SDS011;21755;43.608;1.236;2023-03-15T15:02:50;3.53;;;0.73;;
34767;SDS011;21755;43.608;1.236;2023-03-15T15:05:25;1.63;;;0.60;;
34767;SDS011;21755;43.608;1.236;2023-03-15T15:07:56;3.83;;;0.52;;
34767;SDS011;21755;43.608;1.236;2023-03-15T15:10:28;2.15;;;0.50;;
34767;SDS011;21755;43.608;1.236;2023-03-15T15:12:56;3.00;;;0.50;;
34767;SDS011;21755;43.608;1.236;2023-03-15T15:15:21;2.75;;;0.70;;
34767;SDS011;21755;43.608;1.236;2023-03-15T15:17:47;1.05;;;0.47;;
34767;SDS011;21755;43.608;1.236;2023-03-15T15:20:14;3.80;;;0.50;;
34767;SDS011;21755;43.608;1.236;2023-03-15T15:22:43;2.33;;;0.60;;
34767;SDS011;21755;43.608;1.236;2023-03-15T15:25:19;6.05;;;0.57;;
34767;SDS011;21755;43.608;1.236;2023-03-15T15:27:47;9.57;;;0.85;;
34767;SDS011;21755;43.608;1.236;2023-03-15T15:30:16;6.70;;;1.05;;
34767;SDS011;21755;43.608;1.236;2023-03-15T15:32:45;1.05;;;0.38;;
34767;SDS011;21755;43.608;1.236;2023-03-15T15:35:15;1.85;;;0.50;;
34767;SDS011;21755;43.608;1.236;2023-03-15T15:37:42;1.73;;;0.35;;
34767;SDS011;21755;43.608;1.236;2023-03-15T15:40:13;1.48;;;0.65;;
34767;SDS011;21755;43.608;1.236;2023-03-15T15:42:44;2.10;;;0.45;;
34767;SDS011;21755;43.608;1.236;2023-03-15T15:45:11;1.98;;;0.57;;
34767;SDS011;21755;43.608;1.236;2023-03-15T15:47:39;4.47;;;0.60;;
34767;SDS011;21755;43.608;1.236;2023-03-15T15:50:05;1.83;;;0.52;;
34767;SDS011;21755;43.608;1.236;2023-03-15T15:52:32;2.17;;;1.02;;
34767;SDS011;21755;43.608;1.236;2023-03-15T15:54:59;1.95;;;0.70;;
34767;SDS011;21755;43.608;1.236;2023-03-15T15:57:26;0.93;;;0.50;;
34767;SDS011;21755;43.608;1.236;2023-03-15T15:59:52;1.60;;;0.45;;
34767;SDS011;21755;43.608;1.236;2023-03-15T16:02:18;2.28;;;0.70;;
34767;SDS011;21755;43.608;1.236;2023-03-15T16:04:47;3.38;;;0.95;;
34767;SDS011;21755;43.608;1.236;2023-03-15T16:07:14;2.33;;;0.60;;
34767;SDS011;21755;43.608;1.236;2023-03-15T16:09:41;1.75;;;0.75;;
34767;SDS011;21755;43.608;1.236;2023-03-15T16:12:13;5.05;;;0.90;;
34767;SDS011;21755;43.608;1.236;2023-03-15T16:14:40;2.60;;;0.77;;
34767;SDS011;21755;43.608;1.236;2023-03-15T16:17:10;6.10;;;0.60;;
34767;SDS011;21755;43.608;1.236;2023-03-15T16:19:38;1.85;;;0.65;;